Pechora, Russia
Current Conditions -  °F | °C
As of 11:00 PM on Thursday 29 Jan 2015 (Local Time) from UUYY Reporting Station
Overcast Overcast  
Wind Chill: 11°   Ceiling: 900
Heat Index: 21°   Visibility: 6mi
Dew Point: 18°   Wind: 9mph
Humidity: 86%   Direction: 210°SSW
Pressure: 29.71"   Gusts: 16mph
Location:  65.15°N, 57.21°E
Report Text: UUYY 292000Z 21004G07MPS 9999 OVC009 M06/M08 Q1006 NOSIG 1942//44 RMK QFE746/0995
Loading
Personal Weather Stations






























Interactive Weather Map New forecast layout! Learn more

10-Day Weather Forecast

Advertisements
Track Severe Weather on mobile